createdAt,value
2019-02-21T00:02:26.379Z,100682.09
2019-02-21T00:04:53.331Z,100686.76
2019-02-21T00:07:20.346Z,100685.89
2019-02-21T00:09:47.697Z,100687.58
2019-02-21T00:12:14.636Z,100683.77
2019-02-21T00:14:41.858Z,100687.18
2019-02-21T00:17:09.108Z,100689.73
2019-02-21T00:19:36.502Z,100687.61
2019-02-21T00:22:03.488Z,100689.30
2019-02-21T00:24:30.812Z,100692.70
2019-02-21T00:26:58.131Z,100689.70
2019-02-21T00:29:25.066Z,100688.44
2019-02-21T00:31:52.484Z,100690.98
2019-02-21T00:34:19.471Z,100687.63
2019-02-21T00:36:46.727Z,100691.84
2019-02-21T00:39:13.715Z,100687.59
2019-02-21T00:41:41.006Z,100690.58
2019-02-21T00:44:07.914Z,100692.27
2019-02-21T00:46:35.082Z,100698.20
2019-02-21T00:49:02.047Z,100693.98
2019-02-21T00:51:29.020Z,100697.34
2019-02-21T00:53:56.372Z,100697.78
2019-02-21T00:56:23.254Z,100700.33
2019-02-21T00:58:50.473Z,100697.37
2019-02-21T01:01:17.448Z,100700.33
2019-02-21T01:03:44.448Z,100699.88
2019-02-21T01:06:11.391Z,100697.34
2019-02-21T01:08:38.284Z,100698.20
2019-02-21T01:11:05.505Z,100700.33
2019-02-21T01:13:33.517Z,100698.20
2019-02-21T01:16:00.486Z,100694.80
2019-02-21T01:18:27.457Z,100699.06
2019-02-21T01:20:54.757Z,100695.66
2019-02-21T01:23:21.707Z,100692.70
2019-02-21T01:25:49.064Z,100693.11
2019-02-21T01:28:16.380Z,100688.03
2019-02-21T01:30:43.617Z,100692.26
2019-02-21T01:33:11.101Z,100690.58
2019-02-21T01:35:38.324Z,100690.98
2019-02-21T01:38:05.319Z,100690.58
2019-02-21T01:40:32.310Z,100690.58
2019-02-21T01:42:59.724Z,100685.05
2019-02-21T01:45:27.026Z,100690.58
2019-02-21T01:47:54.005Z,100685.91
2019-02-21T01:50:20.946Z,100687.18
2019-02-21T01:52:47.958Z,100685.49
2019-02-21T01:55:15.232Z,100687.18
2019-02-21T01:57:42.237Z,100690.58
2019-02-21T02:00:09.219Z,100686.32
2019-02-21T02:02:36.217Z,100685.50
2019-02-21T02:05:03.106Z,100682.09
2019-02-21T02:07:30.492Z,100678.70
2019-02-21T02:09:57.469Z,100680.41
2019-02-21T02:12:24.504Z,100674.88
2019-02-21T02:14:51.442Z,100668.13
2019-02-21T02:17:18.399Z,100669.39
2019-02-21T02:19:45.716Z,100665.97
2019-02-21T02:22:13.284Z,100667.65
2019-02-21T02:24:40.302Z,100673.59
2019-02-21T02:27:07.882Z,100669.33
2019-02-21T02:29:35.124Z,100670.60
2019-02-21T02:32:02.022Z,100663.84
2019-02-21T02:34:29.337Z,100661.30
2019-02-21T02:36:56.322Z,100651.98
2019-02-21T02:39:23.307Z,100662.16
2019-02-21T02:41:51.085Z,100660.02
2019-02-21T02:44:18.014Z,100659.61
2019-02-21T02:46:44.995Z,100658.76
2019-02-21T02:49:12.016Z,100653.23
2019-02-21T02:51:38.980Z,100649.01
2019-02-21T02:54:05.919Z,100646.47
2019-02-21T02:56:33.301Z,100650.28
2019-02-21T02:59:00.257Z,100649.86
2019-02-21T03:01:34.646Z,100654.09
2019-02-21T03:03:55.822Z,100649.87
2019-02-21T03:06:23.099Z,100658.31
2019-02-21T03:08:49.965Z,100658.31
2019-02-21T03:11:17.191Z,100654.95
2019-02-21T03:13:44.458Z,100644.78
2019-02-21T03:16:11.449Z,100647.33
2019-02-21T03:18:38.750Z,100654.50
2019-02-21T03:21:05.715Z,100650.69
2019-02-21T03:23:33.068Z,100656.63
2019-02-21T03:26:00.046Z,100657.05
2019-02-21T03:28:27.020Z,100654.09
2019-02-21T03:30:54.317Z,100658.76
2019-02-21T03:33:21.283Z,100659.59
2019-02-21T03:35:48.491Z,100657.48
2019-02-21T03:38:15.391Z,100646.47
2019-02-21T03:40:42.353Z,100640.53
2019-02-21T03:43:09.336Z,100640.53
2019-02-21T03:45:36.245Z,100643.07
2019-02-21T03:48:03.426Z,100644.78
2019-02-21T03:50:30.678Z,100648.15
2019-02-21T03:52:57.596Z,100641.38
2019-02-21T03:55:24.575Z,100645.20
2019-02-21T03:57:51.579Z,100655.36
2019-02-21T04:00:18.526Z,100651.96
2019-02-21T04:02:45.436Z,100664.25
2019-02-21T04:05:12.873Z,100665.11
2019-02-21T04:07:40.335Z,100671.46
2019-02-21T04:10:07.592Z,100668.48
2019-02-21T04:12:34.855Z,100671.02
2019-02-21T04:15:01.738Z,100678.23
2019-02-21T04:17:28.749Z,100688.39
2019-02-21T04:19:56.006Z,100682.04
2019-02-21T04:22:23.346Z,100682.04
2019-02-21T04:24:50.248Z,100682.90
2019-02-21T04:27:17.228Z,100681.18
2019-02-21T04:29:44.471Z,100679.91
2019-02-21T04:32:16.965Z,100674.83
2019-02-21T04:34:40.162Z,100669.75
2019-02-21T04:37:07.315Z,100671.46
2019-02-21T04:39:34.259Z,100674.86
2019-02-21T04:42:01.561Z,100666.80
2019-02-21T04:44:28.560Z,100661.30
2019-02-21T04:46:55.517Z,100670.60
2019-02-21T04:49:22.425Z,100667.65
2019-02-21T04:51:49.783Z,100672.73
2019-02-21T04:54:18.902Z,100675.28
2019-02-21T04:56:46.058Z,100675.28
2019-02-21T04:59:13.303Z,100668.52
2019-02-21T05:01:40.579Z,100674.42
2019-02-21T05:04:07.499Z,100672.32
2019-02-21T05:06:34.790Z,100671.88
2019-02-21T05:09:02.151Z,100673.56
2019-02-21T05:11:30.953Z,100671.46
2019-02-21T05:13:57.957Z,100674.42
2019-02-21T05:16:25.288Z,100660.89
2019-02-21T05:18:52.267Z,100668.52
2019-02-21T05:21:19.281Z,100660.02
2019-02-21T05:23:46.158Z,100671.91
2019-02-21T05:26:13.077Z,100670.22
2019-02-21T05:28:41.264Z,100671.94
2019-02-21T05:31:08.412Z,100667.27
2019-02-21T05:33:35.383Z,100673.62
2019-02-21T05:36:02.392Z,100674.48
2019-02-21T05:38:29.322Z,100669.33
2019-02-21T05:40:56.226Z,100674.00
2019-02-21T05:43:23.220Z,100672.73
2019-02-21T05:45:50.550Z,100677.41
2019-02-21T05:48:17.827Z,100676.55
2019-02-21T05:50:44.748Z,100679.50
2019-02-21T05:53:12.004Z,100673.15
2019-02-21T05:55:40.054Z,100673.59
2019-02-21T05:58:07.062Z,100670.60
2019-02-21T06:00:36.753Z,100674.00
2019-02-21T06:03:02.858Z,100672.73
2019-02-21T06:05:29.733Z,100674.42
2019-02-21T06:07:56.624Z,100674.00
2019-02-21T06:10:24.010Z,100678.67
2019-02-21T06:12:50.997Z,100678.64
2019-02-21T06:15:18.339Z,100683.31
2019-02-21T06:17:45.414Z,100684.99
2019-02-21T06:20:12.605Z,100688.80
2019-02-21T06:22:39.589Z,100687.98
2019-02-21T06:25:06.607Z,100695.60
2019-02-21T06:27:34.559Z,100702.38
2019-02-21T06:30:03.154Z,100696.02
2019-02-21T06:32:30.597Z,100700.28
2019-02-21T06:34:57.560Z,100704.50
2019-02-21T06:37:25.664Z,100706.25
2019-02-21T06:39:52.710Z,100703.70
2019-02-21T06:42:21.311Z,100703.29
2019-02-21T06:44:50.519Z,100703.29
2019-02-21T06:47:17.412Z,100695.66
2019-02-21T06:49:44.350Z,100696.08
2019-02-21T06:52:11.619Z,100695.24
2019-02-21T06:54:38.589Z,100689.71
2019-02-21T06:57:05.787Z,100688.44
2019-02-21T06:59:42.260Z,100688.44
2019-02-21T07:02:01.656Z,100685.06
2019-02-21T07:04:28.627Z,100686.33
2019-02-21T07:06:56.856Z,100685.92
2019-02-21T07:09:24.299Z,100675.33
2019-02-21T07:11:51.552Z,100671.06
2019-02-21T07:14:18.442Z,100669.80
2019-02-21T07:16:45.394Z,100664.30
2019-02-21T07:19:12.731Z,100666.42
2019-02-21T07:21:39.639Z,100668.51
2019-02-21T07:24:06.580Z,100676.12
2019-02-21T07:26:33.607Z,100676.98
2019-02-21T07:29:00.511Z,100674.87
2019-02-21T07:31:29.009Z,100674.02
2019-02-21T07:33:56.326Z,100679.51
2019-02-21T07:36:23.345Z,100676.99
2019-02-21T07:38:50.251Z,100672.72
2019-02-21T07:41:18.645Z,100671.02
2019-02-21T07:43:46.898Z,100664.23
2019-02-21T07:46:15.834Z,100664.63
2019-02-21T07:48:43.034Z,100662.52
2019-02-21T07:51:10.318Z,100653.59
2019-02-21T07:53:37.545Z,100660.36
2019-02-21T07:56:04.497Z,100661.65
2019-02-21T07:58:31.570Z,100668.84
2019-02-21T08:00:58.521Z,100679.02
2019-02-21T08:03:30.349Z,100680.28
2019-02-21T08:05:54.701Z,100683.67
2019-02-21T08:08:21.679Z,100686.66
2019-02-21T08:10:49.023Z,100691.30
2019-02-21T08:13:15.954Z,100695.13
2019-02-21T08:15:43.196Z,100692.97
2019-02-21T08:18:10.187Z,100698.05
2019-02-21T08:20:40.910Z,100693.80
2019-02-21T08:23:05.778Z,100697.59
2019-02-21T08:25:32.715Z,100702.68
2019-02-21T08:27:59.719Z,100703.54
2019-02-21T08:30:29.028Z,100709.47
2019-02-21T08:32:55.552Z,100708.59
2019-02-21T08:35:22.537Z,100703.97
2019-02-21T08:37:49.490Z,100710.77
2019-02-21T08:40:16.385Z,100709.94
2019-02-21T08:42:43.365Z,100713.73
2019-02-21T08:45:10.263Z,100716.69
2019-02-21T08:47:37.208Z,100722.21
2019-02-21T08:50:04.153Z,100721.36
2019-02-21T08:52:31.494Z,100721.76
2019-02-21T08:55:00.488Z,100723.02
2019-02-21T08:57:27.473Z,100726.84
2019-02-21T08:59:54.421Z,100725.55
2019-02-21T09:02:21.741Z,100727.66
2019-02-21T09:04:48.995Z,100725.09
2019-02-21T09:07:17.025Z,100724.22
2019-02-21T09:09:44.007Z,100723.84
2019-02-21T09:12:10.919Z,100724.65
2019-02-21T09:14:37.870Z,100725.91
2019-02-21T09:17:04.872Z,100730.16
2019-02-21T09:19:32.089Z,100727.55
2019-02-21T09:21:59.359Z,100730.06
2019-02-21T09:24:38.250Z,100734.30
2019-02-21T09:26:57.359Z,100729.16
2019-02-21T09:29:23.786Z,100722.36
2019-02-21T09:31:51.032Z,100729.16
2019-02-21T09:34:21.173Z,100730.00
2019-02-21T09:36:46.563Z,100728.73
2019-02-21T09:39:15.933Z,100732.19
2019-02-21T09:41:42.188Z,100733.08
2019-02-21T09:44:09.155Z,100726.70
2019-02-21T09:46:36.098Z,100719.05
2019-02-21T09:49:03.144Z,100712.21
2019-02-21T09:51:30.182Z,100717.75
2019-02-21T09:53:57.426Z,100718.14
2019-02-21T09:56:30.496Z,100719.41
2019-02-21T09:58:54.463Z,100719.05
2019-02-21T10:01:21.735Z,100720.83
2019-02-21T10:03:48.990Z,100723.34
2019-02-21T10:06:16.022Z,100720.32
2019-02-21T10:08:42.981Z,100716.47
2019-02-21T10:11:11.437Z,100718.16
2019-02-21T10:13:38.712Z,100722.38
2019-02-21T10:16:06.936Z,100728.28
2019-02-21T10:18:41.717Z,100732.54
2019-02-21T10:21:10.250Z,100721.47
2019-02-21T10:23:38.591Z,100734.17
2019-02-21T10:26:05.867Z,100733.30
2019-02-21T10:28:33.086Z,100740.03
2019-02-21T10:31:00.047Z,100738.39
2019-02-21T10:33:27.391Z,100737.64
2019-02-21T10:35:54.371Z,100738.91
2019-02-21T10:38:21.698Z,100746.10
2019-02-21T10:40:49.050Z,100748.65
2019-02-21T10:43:16.360Z,100743.94
2019-02-21T10:45:47.874Z,100743.09
2019-02-21T10:48:11.825Z,100741.38
2019-02-21T10:50:38.721Z,100744.79
2019-02-21T10:53:06.053Z,100748.63
2019-02-21T10:55:33.023Z,100736.35
2019-02-21T10:57:59.909Z,100733.38
2019-02-21T11:00:27.063Z,100735.03
2019-02-21T11:02:55.238Z,100742.27
2019-02-21T11:05:22.506Z,100737.53
2019-02-21T11:07:49.472Z,100740.83
2019-02-21T11:10:18.937Z,100740.70
2019-02-21T11:12:45.029Z,100739.01
2019-02-21T11:15:11.997Z,100734.84
2019-02-21T11:17:39.183Z,100723.03
2019-02-21T11:20:06.433Z,100719.22
2019-02-21T11:22:34.813Z,100708.64
2019-02-21T11:25:01.690Z,100699.75
2019-02-21T11:27:29.002Z,100709.05
2019-02-21T11:29:56.263Z,100705.19
2019-02-21T11:32:23.529Z,100691.99
2019-02-21T11:34:50.480Z,100691.11
2019-02-21T11:37:17.708Z,100693.17
2019-02-21T11:39:44.650Z,100684.25
2019-02-21T11:42:11.535Z,100674.46
2019-02-21T11:44:38.427Z,100671.90
2019-02-21T11:47:05.390Z,100663.41
2019-02-21T11:49:32.642Z,100662.58
2019-02-21T11:52:09.612Z,100658.34
2019-02-21T11:54:28.477Z,100654.53
2019-02-21T11:56:55.743Z,100665.14
2019-02-21T11:59:22.696Z,100663.00
2019-02-21T12:01:49.663Z,100662.09
2019-02-21T12:04:16.596Z,100662.06
2019-02-21T12:06:43.812Z,100669.70
2019-02-21T12:09:10.715Z,100668.01
2019-02-21T12:11:38.029Z,100671.04
2019-02-21T12:14:04.930Z,100666.39
2019-02-21T12:16:31.805Z,100659.55
2019-02-21T12:18:58.810Z,100656.16
2019-02-21T12:21:25.733Z,100659.11
2019-02-21T12:23:52.973Z,100654.45
2019-02-21T12:26:20.417Z,100656.19
2019-02-21T12:28:47.378Z,100643.37
2019-02-21T12:31:14.251Z,100641.63
2019-02-21T12:33:41.470Z,100641.19
2019-02-21T12:36:08.774Z,100648.45
2019-02-21T12:38:36.058Z,100631.44
2019-02-21T12:41:03.082Z,100633.47
2019-02-21T12:43:29.985Z,100630.95
2019-02-21T12:45:57.199Z,100620.70
2019-02-21T12:48:24.470Z,100620.60
2019-02-21T12:50:51.826Z,100614.15
2019-02-21T12:53:18.767Z,100609.42
2019-02-21T12:55:45.693Z,100614.48
2019-02-21T12:58:12.665Z,100623.78
2019-02-21T13:00:43.225Z,100617.83
2019-02-21T13:03:10.193Z,100617.86
2019-02-21T13:05:41.025Z,100618.45
2019-02-21T13:08:05.774Z,100613.98
2019-02-21T13:10:34.871Z,100615.38
2019-02-21T13:13:01.382Z,100616.20
2019-02-21T13:15:28.642Z,100610.61
2019-02-21T13:17:55.653Z,100611.36
2019-02-21T13:20:22.620Z,100611.42
2019-02-21T13:22:49.902Z,100608.48
2019-02-21T13:25:16.850Z,100611.90
2019-02-21T13:27:44.105Z,100607.22
2019-02-21T13:30:11.337Z,100607.14
2019-02-21T13:32:38.602Z,100611.27
2019-02-21T13:35:05.584Z,100607.48
2019-02-21T13:37:32.458Z,100602.88
2019-02-21T13:40:00.593Z,100591.80
2019-02-21T13:42:28.843Z,100600.38
2019-02-21T13:44:56.203Z,100598.32
2019-02-21T13:47:23.154Z,100596.10
2019-02-21T13:49:50.467Z,100599.45
2019-02-21T13:52:17.428Z,100588.27
2019-02-21T13:54:44.424Z,100590.41
2019-02-21T13:57:11.757Z,100592.11
2019-02-21T13:59:38.726Z,100593.27
2019-02-21T14:02:05.672Z,100597.92
2019-02-21T14:04:32.624Z,100592.30
2019-02-21T14:06:59.824Z,100597.80
2019-02-21T14:09:26.811Z,100600.79
2019-02-21T14:11:54.051Z,100594.91
2019-02-21T14:14:21.265Z,100595.41
2019-02-21T14:16:48.144Z,100591.97
2019-02-21T14:19:15.029Z,100589.78
2019-02-21T14:21:43.796Z,100593.14
2019-02-21T14:24:10.937Z,100594.89
2019-02-21T14:26:38.192Z,100599.70
2019-02-21T14:29:05.553Z,100604.39
2019-02-21T14:31:33.646Z,100606.64
2019-02-21T14:34:00.629Z,100611.27
2019-02-21T14:36:27.899Z,100613.02
2019-02-21T14:38:54.878Z,100609.66
2019-02-21T14:41:21.818Z,100613.89
2019-02-21T14:43:49.017Z,100610.87
2019-02-21T14:46:17.378Z,100612.53
2019-02-21T14:48:44.370Z,100601.84
2019-02-21T14:51:11.347Z,100606.53
2019-02-21T14:53:38.290Z,100606.63
2019-02-21T14:56:05.554Z,100610.00
2019-02-21T14:58:32.431Z,100605.40
2019-02-21T15:00:59.324Z,100609.23
2019-02-21T15:03:26.230Z,100603.70
2019-02-21T15:05:53.279Z,100610.03
2019-02-21T15:08:22.052Z,100608.75
2019-02-21T15:10:48.908Z,100615.30
2019-02-21T15:13:16.176Z,100595.82
2019-02-21T15:15:43.147Z,100595.92
2019-02-21T15:18:11.306Z,100592.16
2019-02-21T15:20:38.714Z,100592.52
2019-02-21T15:23:05.588Z,100590.77
2019-02-21T15:25:32.767Z,100598.80
2019-02-21T15:27:59.654Z,100602.56
2019-02-21T15:30:26.623Z,100600.40
2019-02-21T15:32:53.617Z,100604.59
2019-02-21T15:35:20.658Z,100607.93
2019-02-21T15:37:47.653Z,100617.25
2019-02-21T15:40:14.767Z,100624.52
2019-02-21T15:42:42.741Z,100621.20
2019-02-21T15:45:09.790Z,100616.92
2019-02-21T15:47:36.749Z,100616.05
2019-02-21T15:50:03.739Z,100613.45
2019-02-21T15:52:31.036Z,100618.96
2019-02-21T15:54:58.000Z,100607.08
2019-02-21T15:57:25.018Z,100614.33
2019-02-21T15:59:52.412Z,100611.77
2019-02-21T16:02:19.374Z,100619.84
2019-02-21T16:04:46.397Z,100614.73
2019-02-21T16:07:13.361Z,100619.81
2019-02-21T16:09:40.647Z,100624.50
2019-02-21T16:12:07.684Z,100614.30
2019-02-21T16:14:37.633Z,100622.79
2019-02-21T16:17:03.916Z,100624.48
2019-02-21T16:19:31.192Z,100623.19
2019-02-21T16:21:58.452Z,100625.27
2019-02-21T16:24:25.390Z,100627.81
2019-02-21T16:26:52.304Z,100629.91
2019-02-21T16:29:19.309Z,100636.73
2019-02-21T16:31:46.548Z,100631.20
2019-02-21T16:34:13.964Z,100621.44
2019-02-21T16:36:41.403Z,100632.05
2019-02-21T16:39:08.317Z,100638.87
2019-02-21T16:41:39.000Z,100634.67
2019-02-21T16:44:06.380Z,100635.11
2019-02-21T16:46:34.755Z,100637.22
2019-02-21T16:49:01.751Z,100635.98
2019-02-21T16:51:32.129Z,100633.89
2019-02-21T16:54:01.480Z,100632.56
2019-02-21T16:56:28.667Z,100633.43
2019-02-21T16:58:55.701Z,100640.22
2019-02-21T17:01:22.632Z,100643.17
2019-02-21T17:03:49.941Z,100643.16
2019-02-21T17:06:18.389Z,100644.01
2019-02-21T17:08:45.928Z,100649.08
2019-02-21T17:11:13.416Z,100651.22
2019-02-21T17:13:40.458Z,100651.66
2019-02-21T17:16:07.875Z,100652.09
2019-02-21T17:18:36.812Z,100649.16
2019-02-21T17:21:03.793Z,100653.09
2019-02-21T17:23:30.788Z,100650.18
2019-02-21T17:25:57.848Z,100654.04
2019-02-21T17:28:25.159Z,100654.86
2019-02-21T17:30:52.773Z,100654.41
2019-02-21T17:33:22.155Z,100653.58
2019-02-21T17:35:50.870Z,100653.60
2019-02-21T17:38:18.116Z,100655.73
2019-02-21T17:40:45.055Z,100657.45
2019-02-21T17:43:12.566Z,100650.62
2019-02-21T17:45:39.624Z,100653.64
2019-02-21T17:48:06.721Z,100654.44
2019-02-21T17:50:33.829Z,100659.52
2019-02-21T17:53:00.889Z,100656.11
2019-02-21T17:55:30.575Z,100661.23
2019-02-21T17:57:57.899Z,100667.16
2019-02-21T18:00:24.953Z,100659.50
2019-02-21T18:02:51.894Z,100672.27
2019-02-21T18:05:18.817Z,100664.22
2019-02-21T18:07:45.967Z,100666.88
2019-02-21T18:10:14.055Z,100666.50
2019-02-21T18:12:41.047Z,100663.11
2019-02-21T18:15:08.466Z,100661.85
2019-02-21T18:17:35.345Z,100660.59
2019-02-21T18:20:02.405Z,100660.59
2019-02-21T18:22:31.027Z,100651.31
2019-02-21T18:24:59.523Z,100655.17
2019-02-21T18:27:35.674Z,100653.84
2019-02-21T18:30:03.110Z,100650.86
2019-02-21T18:32:31.756Z,100644.47
2019-02-21T18:34:58.786Z,100654.21
2019-02-21T18:37:26.123Z,100649.55
2019-02-21T18:39:53.062Z,100658.94
2019-02-21T18:42:20.544Z,100661.43
2019-02-21T18:44:49.474Z,100661.02
2019-02-21T18:47:22.900Z,100655.16
2019-02-21T18:49:51.534Z,100666.27
2019-02-21T18:52:20.218Z,100666.75
2019-02-21T18:54:52.042Z,100665.45
2019-02-21T18:57:16.147Z,100656.08
2019-02-21T18:59:48.111Z,100650.98
2019-02-21T19:02:15.518Z,100647.61
2019-02-21T19:04:42.865Z,100639.98
2019-02-21T19:07:09.968Z,100643.39
2019-02-21T19:09:37.028Z,100639.06
2019-02-21T19:12:06.526Z,100640.30
2019-02-21T19:14:35.261Z,100635.17
2019-02-21T19:17:05.321Z,100642.83
2019-02-21T19:19:32.303Z,100646.66
2019-02-21T19:25:56.655Z,100641.94
2019-02-21T19:27:02.692Z,100633.86
2019-02-21T19:29:29.978Z,100641.52
2019-02-21T19:31:56.950Z,100636.42
2019-02-21T19:34:33.674Z,100630.48
2019-02-21T19:37:01.619Z,100628.77
2019-02-21T19:39:35.441Z,100624.93
2019-02-21T19:42:02.179Z,100619.44
2019-02-21T19:44:29.247Z,100614.38
2019-02-21T19:46:56.248Z,100611.39
2019-02-21T19:49:23.225Z,100616.92
2019-02-21T19:51:51.926Z,100613.08
2019-02-21T19:54:19.135Z,100613.08
2019-02-21T19:56:50.305Z,100618.60
2019-02-21T19:59:18.411Z,100616.05
2019-02-21T20:01:45.822Z,100631.34
2019-02-21T20:04:12.805Z,100620.30
2019-02-21T20:06:39.999Z,100630.09
2019-02-21T20:09:09.468Z,100626.27
2019-02-21T20:11:37.288Z,100629.66
2019-02-21T20:14:06.985Z,100633.08
2019-02-21T20:16:36.687Z,100626.28
2019-02-21T20:19:05.338Z,100631.86
2019-02-21T20:21:32.418Z,100627.19
2019-02-21T20:23:59.463Z,100622.06
2019-02-21T20:26:27.611Z,100627.16
2019-02-21T20:28:55.880Z,100624.63
2019-02-21T20:31:22.835Z,100624.21
2019-02-21T20:33:50.058Z,100622.06
2019-02-21T20:36:17.138Z,100627.16
2019-02-21T20:38:44.304Z,100625.48
2019-02-21T20:41:13.493Z,100623.37
2019-02-21T20:43:40.818Z,100624.64
2019-02-21T20:46:09.514Z,100627.22
2019-02-21T20:48:37.630Z,100622.98
2019-02-21T20:51:09.088Z,100622.09
2019-02-21T20:53:37.314Z,100620.39
2019-02-21T20:56:06.200Z,100626.32
2019-02-21T20:58:33.008Z,100626.31
2019-02-21T21:01:00.001Z,100624.27
2019-02-21T21:03:28.461Z,100619.61
2019-02-21T21:06:00.385Z,100628.17
2019-02-21T21:08:29.085Z,100632.45
2019-02-21T21:10:56.595Z,100628.27
2019-02-21T21:13:23.562Z,100628.27
2019-02-21T21:15:50.606Z,100578.79
2019-02-21T21:18:17.850Z,100624.48
2019-02-21T21:20:45.086Z,100628.77
2019-02-21T21:23:12.500Z,100624.48
2019-02-21T21:25:42.794Z,100631.79
2019-02-21T21:28:10.218Z,100624.19
2019-02-21T21:30:37.708Z,100625.92
2019-02-21T21:33:10.520Z,100630.09
2019-02-21T21:35:39.553Z,100627.52
2019-02-21T21:38:11.133Z,100628.77
2019-02-21T21:40:38.092Z,100626.19
2019-02-21T21:43:06.197Z,100629.15
2019-02-21T21:45:33.255Z,100629.55
2019-02-21T21:48:01.957Z,100623.62
2019-02-21T21:50:29.020Z,100632.52
2019-02-21T21:52:56.057Z,100633.42
2019-02-21T21:55:23.133Z,100632.97
2019-02-21T21:57:50.657Z,100625.30
2019-02-21T22:00:18.095Z,100629.18
2019-02-21T22:02:45.680Z,100630.92
2019-02-21T22:05:14.039Z,100621.20
2019-02-21T22:07:41.094Z,100633.55
2019-02-21T22:10:08.131Z,100628.47
2019-02-21T22:12:35.296Z,100625.50
2019-02-21T22:15:04.112Z,100625.11
2019-02-21T22:17:32.698Z,100622.58
2019-02-21T22:19:59.742Z,100623.42
2019-02-21T22:22:26.777Z,100628.94
2019-02-21T22:24:53.822Z,100631.47
2019-02-21T22:27:24.818Z,100636.55
2019-02-21T22:29:52.375Z,100627.27
2019-02-21T22:32:19.331Z,100625.12
2019-02-21T22:34:47.546Z,100625.95
2019-02-21T22:37:14.530Z,100627.22
2019-02-21T22:39:41.594Z,100630.20
2019-02-21T22:42:08.931Z,100627.23
2019-02-21T22:44:35.969Z,100637.84
2019-02-21T22:47:03.006Z,100628.08
2019-02-21T22:49:29.904Z,100634.45
2019-02-21T22:51:56.852Z,100634.02
2019-02-21T22:54:24.078Z,100633.63
2019-02-21T22:56:51.555Z,100632.77
2019-02-21T22:59:19.988Z,100630.23
2019-02-21T23:01:49.962Z,100632.77
2019-02-21T23:04:17.011Z,100640.44
2019-02-21T23:06:44.027Z,100637.91
2019-02-21T23:09:13.228Z,100641.30
2019-02-21T23:11:40.202Z,100636.20
2019-02-21T23:14:07.392Z,100640.41
2019-02-21T23:16:34.678Z,100649.33
2019-02-21T23:19:02.215Z,100649.36
2019-02-21T23:21:29.149Z,100644.66
2019-02-21T23:23:56.316Z,100642.14
2019-02-21T23:26:24.048Z,100646.81
2019-02-21T23:28:51.068Z,100648.45
2019-02-21T23:31:18.077Z,100652.27
2019-02-21T23:33:45.137Z,100648.50
2019-02-21T23:36:12.604Z,100650.63
2019-02-21T23:38:39.571Z,100646.40
2019-02-21T23:41:08.235Z,100644.70
2019-02-21T23:43:35.515Z,100642.99
2019-02-21T23:46:02.612Z,100645.93
2019-02-21T23:48:29.632Z,100648.90
2019-02-21T23:50:57.057Z,100657.80
2019-02-21T23:53:24.050Z,100650.14
2019-02-21T23:55:51.325Z,100650.55
2019-02-21T23:58:18.302Z,100642.55
